createdAt,value
2019-02-02T00:00:37.485Z,26.10
2019-02-02T00:01:16.463Z,27.30
2019-02-02T00:02:16.460Z,27.70
2019-02-02T00:03:16.544Z,27.00
2019-02-02T00:04:17.621Z,28.10
2019-02-02T00:05:16.667Z,27.40
2019-02-02T00:06:38.010Z,25.90
2019-02-02T00:07:16.407Z,26.30
2019-02-02T00:08:16.841Z,27.70
2019-02-02T00:09:16.395Z,27.90
2019-02-02T00:10:16.376Z,27.20
2019-02-02T00:11:16.409Z,27.60
2019-02-02T00:12:37.352Z,27.20
2019-02-02T00:13:16.347Z,27.10
2019-02-02T00:14:16.341Z,26.60
2019-02-02T00:15:16.330Z,27.60
2019-02-02T00:16:16.335Z,27.80
2019-02-02T00:17:16.318Z,26.50
2019-02-02T00:18:37.310Z,27.40
2019-02-02T00:19:16.285Z,27.20
2019-02-02T00:20:16.279Z,25.60
2019-02-02T00:21:16.287Z,25.40
2019-02-02T00:22:16.253Z,25.90
2019-02-02T00:23:16.257Z,25.50
2019-02-02T00:24:37.246Z,27.20
2019-02-02T00:25:16.267Z,27.90
2019-02-02T00:26:16.218Z,26.20
2019-02-02T00:27:16.220Z,27.10
2019-02-02T00:28:16.201Z,27.10
2019-02-02T00:29:16.197Z,25.40
2019-02-02T00:30:37.175Z,26.70
2019-02-02T00:31:16.188Z,27.30
2019-02-02T00:32:16.148Z,26.10
2019-02-02T00:33:16.139Z,28.00
2019-02-02T00:34:16.130Z,26.90
2019-02-02T00:35:16.120Z,27.70
2019-02-02T00:36:37.134Z,26.60
2019-02-02T00:37:16.128Z,28.80
2019-02-02T00:38:16.174Z,27.80
2019-02-02T00:39:16.077Z,27.70
2019-02-02T00:40:16.077Z,29.60
2019-02-02T00:41:16.082Z,27.30
2019-02-02T00:42:37.076Z,27.60
2019-02-02T00:43:16.108Z,28.10
2019-02-02T00:44:16.027Z,27.70
2019-02-02T00:45:16.032Z,28.00
2019-02-02T00:46:16.007Z,28.00
2019-02-02T00:47:16.003Z,28.30
2019-02-02T00:48:37.010Z,27.40
2019-02-02T00:49:15.982Z,28.00
2019-02-02T00:50:15.963Z,30.00
2019-02-02T00:51:15.963Z,28.30
2019-02-02T00:52:15.950Z,28.50
2019-02-02T00:53:15.946Z,29.00
2019-02-02T00:54:36.936Z,29.10
2019-02-02T00:55:15.927Z,29.20
2019-02-02T00:56:15.908Z,30.40
2019-02-02T00:57:15.889Z,28.50
2019-02-02T00:58:15.882Z,28.50
2019-02-02T00:59:15.870Z,30.60
2019-02-02T01:00:36.869Z,29.50
2019-02-02T01:01:15.845Z,30.30
2019-02-02T01:02:15.853Z,29.40
2019-02-02T01:03:15.834Z,29.90
2019-02-02T01:04:15.820Z,29.80
2019-02-02T01:05:15.824Z,29.70
2019-02-02T01:06:36.831Z,29.60
2019-02-02T01:07:15.792Z,29.10
2019-02-02T01:08:15.775Z,30.10
2019-02-02T01:09:15.773Z,30.80
2019-02-02T01:10:15.758Z,30.40
2019-02-02T01:11:15.745Z,29.70
2019-02-02T01:12:36.741Z,29.70
2019-02-02T01:13:15.770Z,29.50
2019-02-02T01:14:15.719Z,29.30
2019-02-02T01:15:15.714Z,31.80
2019-02-02T01:16:15.699Z,32.30
2019-02-02T01:17:15.684Z,30.90
2019-02-02T01:18:36.686Z,30.10
2019-02-02T01:19:15.672Z,28.20
2019-02-02T01:20:15.651Z,28.90
2019-02-02T01:21:15.647Z,29.30
2019-02-02T01:22:15.646Z,30.60
2019-02-02T01:23:15.625Z,28.30
2019-02-02T01:24:36.620Z,28.00
2019-02-02T01:25:15.612Z,28.30
2019-02-02T01:26:15.596Z,29.70
2019-02-02T01:27:15.597Z,28.80
2019-02-02T01:28:15.586Z,29.90
2019-02-02T01:29:15.568Z,31.60
2019-02-02T01:30:36.562Z,29.80
2019-02-02T01:31:15.552Z,30.90
2019-02-02T01:32:15.940Z,31.20
2019-02-02T01:33:15.531Z,29.90
2019-02-02T01:34:15.513Z,29.30
2019-02-02T01:35:15.505Z,29.20
2019-02-02T01:36:36.499Z,31.10
2019-02-02T01:37:15.483Z,30.00
2019-02-02T01:38:15.479Z,30.50
2019-02-02T01:39:15.461Z,30.40
2019-02-02T01:40:15.457Z,29.40
2019-02-02T01:41:15.449Z,27.50
2019-02-02T01:42:36.447Z,29.00
2019-02-02T01:43:15.428Z,27.90
2019-02-02T01:44:15.415Z,30.30
2019-02-02T01:45:15.399Z,29.70
2019-02-02T01:46:15.434Z,29.10
2019-02-02T01:47:15.389Z,27.90
2019-02-02T01:48:36.391Z,29.10
2019-02-02T01:49:15.371Z,29.80
2019-02-02T01:50:15.356Z,29.40
2019-02-02T01:51:15.340Z,29.30
2019-02-02T01:52:15.330Z,29.70
2019-02-02T01:53:15.359Z,28.70
2019-02-02T01:54:38.379Z,28.90
2019-02-02T01:55:15.318Z,28.50
2019-02-02T01:56:15.288Z,29.50
2019-02-02T01:57:15.285Z,31.30
2019-02-02T01:58:16.887Z,30.30
2019-02-02T01:59:15.262Z,30.10
2019-02-02T02:00:36.262Z,29.80
2019-02-02T02:01:15.242Z,29.90
2019-02-02T02:02:15.229Z,31.00
2019-02-02T02:03:15.213Z,29.90
2019-02-02T02:04:15.215Z,29.40
2019-02-02T02:05:15.194Z,30.60
2019-02-02T02:06:36.204Z,30.10
2019-02-02T02:07:15.170Z,26.60
2019-02-02T02:08:15.169Z,29.00
2019-02-02T02:09:15.154Z,27.40
2019-02-02T02:10:15.158Z,26.30
2019-02-02T02:11:15.138Z,26.30
2019-02-02T02:12:36.137Z,25.00
2019-02-02T02:13:15.112Z,26.20
2019-02-02T02:14:15.117Z,25.30
2019-02-02T02:15:15.095Z,27.30
2019-02-02T02:16:15.085Z,24.90
2019-02-02T02:17:15.084Z,27.50
2019-02-02T02:18:36.073Z,27.60
2019-02-02T02:19:15.053Z,26.10
2019-02-02T02:20:15.037Z,27.30
2019-02-02T02:21:15.034Z,27.20
2019-02-02T02:22:15.033Z,28.00
2019-02-02T02:23:15.017Z,30.50
2019-02-02T02:24:36.012Z,27.90
2019-02-02T02:25:14.998Z,30.70
2019-02-02T02:26:15.002Z,32.50
2019-02-02T02:27:14.975Z,41.70
2019-02-02T02:28:14.966Z,42.80
2019-02-02T02:29:14.959Z,45.50
2019-02-02T02:30:35.956Z,35.70
2019-02-02T02:31:14.938Z,36.40
2019-02-02T02:32:14.932Z,39.10
2019-02-02T02:33:14.916Z,37.20
2019-02-02T02:34:14.905Z,34.90
2019-02-02T02:35:14.903Z,36.40
2019-02-02T02:36:35.898Z,37.20
2019-02-02T02:37:14.992Z,41.10
2019-02-02T02:38:14.865Z,36.00
2019-02-02T02:39:14.857Z,32.30
2019-02-02T02:40:14.846Z,31.70
2019-02-02T02:41:14.841Z,31.20
2019-02-02T02:42:35.823Z,30.30
2019-02-02T02:43:14.817Z,29.50
2019-02-02T02:44:14.801Z,30.60
2019-02-02T02:45:14.798Z,30.30
2019-02-02T02:46:14.796Z,30.30
2019-02-02T02:47:14.778Z,30.50
2019-02-02T02:48:35.759Z,30.50
2019-02-02T02:49:14.761Z,30.00
2019-02-02T02:50:14.741Z,29.90
2019-02-02T02:51:14.746Z,29.40
2019-02-02T02:52:14.728Z,31.00
2019-02-02T02:53:14.734Z,36.80
2019-02-02T02:54:35.721Z,36.10
2019-02-02T02:55:14.695Z,33.20
2019-02-02T02:56:14.683Z,31.90
2019-02-02T02:57:14.677Z,31.10
2019-02-02T02:58:14.668Z,30.80
2019-02-02T02:59:14.652Z,29.40
2019-02-02T03:00:35.649Z,31.00
2019-02-02T03:01:14.641Z,28.40
2019-02-02T03:02:14.643Z,30.50
2019-02-02T03:03:14.625Z,33.10
2019-02-02T03:04:14.629Z,32.70
2019-02-02T03:05:14.604Z,33.90
2019-02-02T03:06:35.588Z,33.50
2019-02-02T03:07:14.581Z,37.00
2019-02-02T03:08:15.352Z,36.20
2019-02-02T03:09:14.549Z,34.90
2019-02-02T03:10:14.535Z,34.60
2019-02-02T03:11:14.521Z,35.00
2019-02-02T03:12:35.523Z,36.30
2019-02-02T03:13:14.508Z,36.00
2019-02-02T03:14:14.500Z,36.20
2019-02-02T03:15:14.560Z,34.70
2019-02-02T03:16:14.473Z,33.30
2019-02-02T03:17:14.468Z,33.50
2019-02-02T03:18:35.480Z,32.30
2019-02-02T03:19:14.446Z,31.10
2019-02-02T03:20:14.433Z,32.60
2019-02-02T03:21:14.435Z,33.30
2019-02-02T03:22:14.585Z,30.50
2019-02-02T03:23:14.403Z,31.20
2019-02-02T03:24:35.400Z,30.50
2019-02-02T03:25:14.639Z,30.10
2019-02-02T03:26:14.376Z,31.30
2019-02-02T03:27:14.354Z,30.40
2019-02-02T03:28:14.347Z,31.50
2019-02-02T03:29:14.352Z,30.10
2019-02-02T03:30:35.346Z,32.30
2019-02-02T03:31:14.328Z,31.90
2019-02-02T03:32:14.326Z,31.70
2019-02-02T03:33:14.310Z,32.10
2019-02-02T03:34:14.293Z,35.20
2019-02-02T03:35:14.276Z,36.10
2019-02-02T03:36:35.273Z,34.40
2019-02-02T03:37:14.276Z,33.00
2019-02-02T03:38:14.246Z,32.90
2019-02-02T03:39:14.234Z,34.50
2019-02-02T03:40:14.223Z,32.20
2019-02-02T03:41:14.219Z,33.20
2019-02-02T03:42:35.234Z,33.00
2019-02-02T03:43:14.186Z,33.40
2019-02-02T03:44:14.187Z,32.40
2019-02-02T03:45:14.177Z,34.50
2019-02-02T03:46:14.158Z,32.70
2019-02-02T03:47:14.146Z,33.70
2019-02-02T03:48:35.136Z,34.30
2019-02-02T03:49:14.139Z,33.10
2019-02-02T03:50:14.127Z,35.60
2019-02-02T03:51:14.103Z,35.10
2019-02-02T03:52:14.092Z,34.50
2019-02-02T03:53:14.078Z,34.50
2019-02-02T03:54:35.069Z,38.00
2019-02-02T03:55:14.064Z,35.40
2019-02-02T03:56:14.063Z,36.40
2019-02-02T03:57:14.039Z,37.10
2019-02-02T03:58:14.033Z,36.80
2019-02-02T03:59:14.012Z,36.60
2019-02-02T04:00:35.008Z,38.70
2019-02-02T04:01:13.999Z,38.40
2019-02-02T04:02:14.003Z,38.70
2019-02-02T04:03:13.972Z,36.70
2019-02-02T04:04:13.964Z,36.80
2019-02-02T04:05:13.959Z,38.60
2019-02-02T04:06:34.948Z,37.90
2019-02-02T04:07:13.927Z,36.30
2019-02-02T04:08:13.927Z,37.80
2019-02-02T04:09:14.140Z,39.10
2019-02-02T04:10:13.906Z,40.80
2019-02-02T04:11:13.889Z,41.30
2019-02-02T04:12:34.883Z,40.50
2019-02-02T04:13:13.868Z,38.10
2019-02-02T04:14:13.853Z,40.40
2019-02-02T04:15:13.865Z,38.30
2019-02-02T04:16:13.839Z,37.90
2019-02-02T04:17:13.821Z,38.80
2019-02-02T04:18:35.741Z,38.50
2019-02-02T04:19:13.799Z,39.80
2019-02-02T04:20:13.806Z,39.60
2019-02-02T04:21:13.771Z,40.00
2019-02-02T04:22:13.778Z,38.60
2019-02-02T04:23:13.762Z,39.40
2019-02-02T04:24:34.754Z,40.60
2019-02-02T04:25:13.740Z,38.10
2019-02-02T04:26:13.732Z,38.20
2019-02-02T04:27:13.709Z,38.10
2019-02-02T04:28:13.701Z,37.70
2019-02-02T04:29:17.724Z,37.50
2019-02-02T04:30:34.696Z,37.90
2019-02-02T04:31:13.678Z,39.30
2019-02-02T04:32:13.658Z,41.70
2019-02-02T04:33:13.653Z,39.30
2019-02-02T04:34:13.645Z,39.30
2019-02-02T04:35:13.625Z,40.70
2019-02-02T04:36:34.631Z,40.00
2019-02-02T04:37:13.609Z,41.80
2019-02-02T04:38:13.605Z,40.40
2019-02-02T04:39:13.588Z,37.70
2019-02-02T04:40:14.524Z,38.20
2019-02-02T04:41:13.560Z,37.20
2019-02-02T04:42:34.556Z,38.80
2019-02-02T04:43:13.541Z,37.40
2019-02-02T04:44:13.540Z,39.30
2019-02-02T04:45:13.532Z,40.70
2019-02-02T04:46:13.523Z,39.90
2019-02-02T04:47:13.501Z,38.50
2019-02-02T04:48:34.501Z,38.10
2019-02-02T04:49:13.479Z,41.80
2019-02-02T04:50:13.477Z,41.50
2019-02-02T04:51:13.455Z,39.60
2019-02-02T04:52:13.453Z,38.40
2019-02-02T04:53:13.446Z,38.80
2019-02-02T04:54:34.449Z,37.80
2019-02-02T04:55:13.416Z,39.70
2019-02-02T04:56:13.408Z,41.20
2019-02-02T04:57:13.396Z,40.40
2019-02-02T04:58:13.384Z,40.00
2019-02-02T04:59:13.375Z,41.80
2019-02-02T05:00:34.376Z,37.80
2019-02-02T05:01:13.354Z,39.40
2019-02-02T05:02:13.361Z,38.50
2019-02-02T05:03:13.397Z,38.30
2019-02-02T05:04:13.319Z,39.20
2019-02-02T05:05:13.311Z,39.00
2019-02-02T05:06:34.319Z,38.90
2019-02-02T05:07:13.292Z,38.80
2019-02-02T05:08:13.281Z,39.60
2019-02-02T05:09:13.274Z,38.50
2019-02-02T05:10:13.270Z,39.40
2019-02-02T05:11:13.248Z,40.70
2019-02-02T05:12:34.238Z,40.10
2019-02-02T05:13:13.220Z,40.90
2019-02-02T05:14:13.212Z,39.70
2019-02-02T05:15:13.202Z,40.30
2019-02-02T05:16:13.190Z,41.10
2019-02-02T05:17:13.181Z,39.20
2019-02-02T05:18:34.178Z,40.00
2019-02-02T05:19:13.157Z,40.40
2019-02-02T05:20:13.146Z,40.80
2019-02-02T05:21:13.139Z,41.00
2019-02-02T05:22:13.124Z,39.20
2019-02-02T05:23:13.113Z,41.80
2019-02-02T05:24:34.116Z,42.70
2019-02-02T05:25:13.093Z,41.20
2019-02-02T05:26:13.097Z,42.00
2019-02-02T05:27:13.069Z,40.60
2019-02-02T05:28:13.064Z,39.40
2019-02-02T05:29:13.062Z,42.00
2019-02-02T05:30:34.057Z,42.00
2019-02-02T05:31:13.031Z,37.80
2019-02-02T05:32:13.016Z,38.80
2019-02-02T05:33:13.015Z,41.10
2019-02-02T05:34:13.001Z,40.00
2019-02-02T05:35:12.988Z,39.10
2019-02-02T05:36:33.976Z,40.70
2019-02-02T05:37:12.970Z,40.10
2019-02-02T05:38:12.957Z,40.50
2019-02-02T05:39:12.944Z,40.70
2019-02-02T05:40:12.927Z,41.10
2019-02-02T05:41:13.293Z,41.70
2019-02-02T05:42:33.909Z,39.10
2019-02-02T05:43:12.897Z,39.50
2019-02-02T05:44:12.896Z,39.90
2019-02-02T05:45:12.896Z,37.80
2019-02-02T05:46:12.869Z,38.60
2019-02-02T05:47:12.859Z,40.10
2019-02-02T05:48:33.862Z,42.50
2019-02-02T05:49:12.840Z,41.00
2019-02-02T05:50:12.832Z,40.20
2019-02-02T05:51:12.816Z,42.10
2019-02-02T05:52:12.803Z,42.00
2019-02-02T05:53:12.789Z,40.90
2019-02-02T05:54:33.781Z,38.80
2019-02-02T05:55:12.772Z,39.80
2019-02-02T05:56:12.761Z,41.80
2019-02-02T05:57:12.767Z,39.60
2019-02-02T05:58:12.742Z,40.00
2019-02-02T05:59:12.727Z,39.90
2019-02-02T06:00:33.718Z,39.70
2019-02-02T06:01:12.705Z,39.50
2019-02-02T06:02:12.692Z,43.30
2019-02-02T06:03:12.697Z,41.10
2019-02-02T06:04:12.668Z,41.40
2019-02-02T06:05:12.661Z,42.50
2019-02-02T06:06:33.661Z,40.60
2019-02-02T06:07:12.637Z,40.90
2019-02-02T06:08:12.627Z,43.50
2019-02-02T06:09:12.614Z,42.70
2019-02-02T06:10:12.612Z,39.90
2019-02-02T06:11:12.597Z,41.60
2019-02-02T06:12:33.588Z,40.70
2019-02-02T06:13:12.584Z,41.20
2019-02-02T06:14:12.561Z,44.20
2019-02-02T06:15:12.564Z,41.90
2019-02-02T06:16:12.547Z,41.20
2019-02-02T06:17:12.551Z,41.50
2019-02-02T06:18:33.526Z,40.50
2019-02-02T06:19:12.510Z,40.30
2019-02-02T06:20:12.503Z,39.90
2019-02-02T06:21:12.491Z,39.80
2019-02-02T06:22:12.485Z,41.90
2019-02-02T06:23:12.468Z,41.20
2019-02-02T06:24:33.459Z,43.70
2019-02-02T06:25:12.460Z,41.50
2019-02-02T06:26:12.437Z,41.30
2019-02-02T06:27:12.422Z,44.90
2019-02-02T06:28:12.422Z,44.20
2019-02-02T06:29:12.399Z,43.50
2019-02-02T06:30:33.394Z,43.00
2019-02-02T06:31:12.382Z,43.40
2019-02-02T06:32:12.413Z,43.60
2019-02-02T06:33:12.359Z,43.80
2019-02-02T06:34:12.340Z,42.20
2019-02-02T06:35:12.335Z,42.00
2019-02-02T06:36:33.330Z,42.60
2019-02-02T06:37:12.311Z,43.10
2019-02-02T06:38:12.309Z,41.30
2019-02-02T06:39:12.295Z,40.90
2019-02-02T06:40:12.286Z,42.90
2019-02-02T06:41:12.270Z,42.60
2019-02-02T06:42:33.263Z,42.20
2019-02-02T06:43:12.295Z,44.00
2019-02-02T06:44:12.239Z,43.80
2019-02-02T06:45:12.224Z,42.10
2019-02-02T06:46:12.211Z,41.40
2019-02-02T06:47:12.206Z,40.90
2019-02-02T06:48:33.205Z,43.10
2019-02-02T06:49:12.181Z,42.60
2019-02-02T06:50:12.172Z,43.30
2019-02-02T06:51:12.166Z,43.60
2019-02-02T06:52:12.154Z,43.90
2019-02-02T06:53:12.142Z,43.50
2019-02-02T06:54:33.944Z,41.90
2019-02-02T06:55:12.127Z,42.80
2019-02-02T06:56:12.110Z,43.50
2019-02-02T06:57:12.097Z,42.40
2019-02-02T06:58:12.093Z,43.30
2019-02-02T06:59:12.077Z,40.90
2019-02-02T07:00:33.094Z,42.40
2019-02-02T07:01:12.051Z,42.30
2019-02-02T07:02:12.051Z,43.90
2019-02-02T07:03:12.039Z,39.90
2019-02-02T07:04:12.028Z,43.50
2019-02-02T07:05:12.017Z,43.50
2019-02-02T07:06:33.008Z,43.20
2019-02-02T07:07:11.993Z,43.10
2019-02-02T07:08:11.988Z,45.10
2019-02-02T07:09:12.044Z,44.20
2019-02-02T07:10:11.972Z,41.30
2019-02-02T07:11:11.953Z,42.90
2019-02-02T07:12:32.944Z,42.50
2019-02-02T07:13:12.452Z,40.80
2019-02-02T07:14:11.944Z,41.70
2019-02-02T07:15:11.907Z,42.00
2019-02-02T07:16:11.901Z,43.40
2019-02-02T07:17:11.892Z,41.10
2019-02-02T07:18:32.887Z,42.50
2019-02-02T07:19:11.866Z,43.10
2019-02-02T07:20:11.867Z,40.00
2019-02-02T07:21:11.861Z,42.50
2019-02-02T07:22:11.955Z,43.20
2019-02-02T07:23:11.821Z,42.50
2019-02-02T07:24:32.820Z,44.20
2019-02-02T07:25:11.810Z,44.60
2019-02-02T07:26:11.795Z,42.80
2019-02-02T07:27:11.788Z,43.80
2019-02-02T07:28:11.780Z,45.00
2019-02-02T07:29:11.760Z,43.70
2019-02-02T07:30:32.775Z,42.60
2019-02-02T07:31:13.245Z,41.50
2019-02-02T07:32:11.742Z,41.70
2019-02-02T07:33:11.714Z,42.50
2019-02-02T07:34:11.715Z,40.30
2019-02-02T07:35:11.699Z,42.60
2019-02-02T07:36:32.689Z,43.00
2019-02-02T07:37:11.675Z,44.40
2019-02-02T07:38:11.668Z,45.30
2019-02-02T07:39:11.674Z,42.00
2019-02-02T07:40:11.653Z,41.70
2019-02-02T07:41:11.635Z,42.00
2019-02-02T07:42:32.634Z,41.60
2019-02-02T07:43:11.612Z,41.60
2019-02-02T07:44:11.599Z,42.50
2019-02-02T07:45:11.597Z,42.70
2019-02-02T07:46:14.932Z,41.00
2019-02-02T07:47:11.569Z,43.30
2019-02-02T07:48:32.565Z,43.20
2019-02-02T07:49:11.551Z,42.90
2019-02-02T07:50:11.549Z,44.80
2019-02-02T07:51:11.532Z,42.90
2019-02-02T07:52:11.566Z,44.00
2019-02-02T07:53:11.505Z,45.00
2019-02-02T07:54:33.235Z,45.30
2019-02-02T07:55:11.489Z,44.80
2019-02-02T07:56:11.486Z,45.00
2019-02-02T07:57:11.481Z,45.50
2019-02-02T07:58:11.459Z,44.80
2019-02-02T07:59:11.445Z,46.50
2019-02-02T08:00:40.194Z,45.30
2019-02-02T08:01:11.425Z,44.70
2019-02-02T08:02:11.420Z,45.90
2019-02-02T08:03:11.402Z,42.80
2019-02-02T08:04:11.391Z,43.80
2019-02-02T08:05:11.383Z,44.40
2019-02-02T08:06:32.387Z,44.40
2019-02-02T08:07:11.363Z,44.80
2019-02-02T08:08:11.351Z,45.00
2019-02-02T08:09:11.345Z,43.50
2019-02-02T08:10:11.330Z,43.30
2019-02-02T08:11:11.317Z,44.70
2019-02-02T08:12:32.323Z,44.00
2019-02-02T08:13:11.314Z,44.70
2019-02-02T08:14:11.598Z,44.50
2019-02-02T08:15:11.270Z,45.00
2019-02-02T08:16:11.269Z,43.40
2019-02-02T08:17:11.258Z,43.70
2019-02-02T08:18:32.255Z,45.10
2019-02-02T08:19:11.239Z,45.10
2019-02-02T08:20:11.286Z,44.80
2019-02-02T08:21:11.231Z,43.90
2019-02-02T08:22:11.201Z,44.10
2019-02-02T08:23:11.224Z,45.60
2019-02-02T08:24:32.194Z,44.00
2019-02-02T08:25:11.189Z,43.80
2019-02-02T08:26:11.156Z,46.20
2019-02-02T08:27:11.157Z,47.20
2019-02-02T08:28:11.146Z,46.30
2019-02-02T08:29:11.139Z,44.50
2019-02-02T08:30:35.103Z,42.20
2019-02-02T08:31:11.117Z,43.90
2019-02-02T08:32:11.103Z,41.40
2019-02-02T08:33:11.099Z,42.90
2019-02-02T08:34:11.082Z,43.70
2019-02-02T08:35:11.072Z,43.70
2019-02-02T08:36:32.076Z,44.30
2019-02-02T08:37:11.055Z,45.50
2019-02-02T08:38:11.304Z,46.30
2019-02-02T08:39:11.048Z,45.90
2019-02-02T08:40:11.019Z,45.40
2019-02-02T08:41:11.014Z,45.60
2019-02-02T08:42:32.002Z,42.30
2019-02-02T08:43:11.028Z,46.80
2019-02-02T08:44:11.002Z,46.10
2019-02-02T08:45:11.662Z,45.40
2019-02-02T08:46:10.954Z,46.60
2019-02-02T08:47:10.945Z,44.20
2019-02-02T08:48:31.936Z,44.00
2019-02-02T08:49:10.926Z,46.20
2019-02-02T08:50:12.748Z,43.90
2019-02-02T08:51:10.922Z,44.90
2019-02-02T08:52:10.927Z,44.40
2019-02-02T08:53:10.984Z,41.00
2019-02-02T08:54:31.887Z,45.60
2019-02-02T08:55:10.878Z,45.50
2019-02-02T08:56:10.860Z,43.20
2019-02-02T08:57:10.952Z,46.10
2019-02-02T08:58:10.938Z,46.90
2019-02-02T08:59:10.827Z,44.30
2019-02-02T09:00:31.825Z,46.50
2019-02-02T09:01:10.808Z,44.40
2019-02-02T09:02:10.784Z,44.70
2019-02-02T09:03:10.838Z,45.00
2019-02-02T09:04:10.774Z,45.50
2019-02-02T09:05:10.828Z,45.90
2019-02-02T09:06:38.657Z,45.80
2019-02-02T09:07:10.744Z,46.50
2019-02-02T09:08:10.722Z,46.80
2019-02-02T09:09:10.715Z,47.50
2019-02-02T09:10:10.708Z,46.70
2019-02-02T09:11:10.696Z,48.10
2019-02-02T09:12:31.691Z,44.90
2019-02-02T09:13:10.675Z,46.30
2019-02-02T09:14:10.675Z,45.40
2019-02-02T09:15:10.673Z,46.30
2019-02-02T09:16:10.653Z,46.20
2019-02-02T09:17:10.639Z,45.30
2019-02-02T09:18:31.644Z,45.60
2019-02-02T09:19:10.623Z,45.60
2019-02-02T09:20:10.612Z,45.90
2019-02-02T09:21:10.597Z,47.10
2019-02-02T09:22:10.601Z,45.40
2019-02-02T09:23:10.582Z,45.80
2019-02-02T09:24:31.573Z,45.80
2019-02-02T09:25:10.554Z,44.90
2019-02-02T09:26:10.550Z,44.10
2019-02-02T09:27:10.576Z,45.50
2019-02-02T09:28:10.529Z,44.10
2019-02-02T09:29:10.589Z,45.00
2019-02-02T09:30:31.525Z,45.30
2019-02-02T09:31:15.984Z,46.60
2019-02-02T09:32:10.490Z,45.60
2019-02-02T09:33:10.491Z,44.90
2019-02-02T09:34:10.492Z,45.60
2019-02-02T09:35:10.462Z,45.60
2019-02-02T09:36:31.457Z,45.10
2019-02-02T09:37:10.436Z,46.60
2019-02-02T09:38:12.255Z,47.00
2019-02-02T09:39:10.458Z,43.70
2019-02-02T09:40:10.410Z,44.50
2019-02-02T09:41:10.400Z,43.40
2019-02-02T09:42:31.400Z,43.40
2019-02-02T09:43:10.399Z,46.00
2019-02-02T09:44:10.592Z,46.40
2019-02-02T09:45:11.279Z,45.20
2019-02-02T09:46:12.460Z,46.40
2019-02-02T09:47:13.744Z,45.20
2019-02-02T09:48:33.838Z,43.90
2019-02-02T09:49:12.005Z,42.40
2019-02-02T09:50:10.317Z,44.20
2019-02-02T09:51:10.334Z,42.90
2019-02-02T09:52:11.409Z,43.40
2019-02-02T09:53:10.497Z,43.50
2019-02-02T09:54:33.442Z,42.90
2019-02-02T09:55:12.266Z,44.10
2019-02-02T09:56:10.255Z,44.20
2019-02-02T09:57:10.238Z,44.80
2019-02-02T09:58:10.225Z,46.40
2019-02-02T09:59:10.233Z,44.70
2019-02-02T10:00:31.212Z,44.40
2019-02-02T10:01:10.201Z,43.40
2019-02-02T10:02:10.212Z,46.90
2019-02-02T10:03:10.183Z,46.50
2019-02-02T10:04:10.181Z,44.10
2019-02-02T10:05:10.161Z,44.80
2019-02-02T10:06:31.156Z,45.80
2019-02-02T10:07:10.165Z,46.20
2019-02-02T10:08:10.142Z,46.80
2019-02-02T10:09:10.134Z,46.70
2019-02-02T10:10:10.130Z,45.00
2019-02-02T10:11:10.108Z,44.30
2019-02-02T10:12:31.098Z,45.30
2019-02-02T10:13:10.098Z,43.00
2019-02-02T10:14:10.074Z,43.80
2019-02-02T10:15:10.076Z,43.30
2019-02-02T10:16:10.067Z,45.40
2019-02-02T10:17:10.818Z,42.70
2019-02-02T10:18:31.048Z,42.30
2019-02-02T10:19:10.027Z,41.50
2019-02-02T10:20:10.026Z,44.00
2019-02-02T10:21:10.023Z,38.50
2019-02-02T10:22:10.003Z,40.00
2019-02-02T10:23:09.986Z,40.10
2019-02-02T10:24:30.990Z,41.20
2019-02-02T10:25:09.979Z,38.90
2019-02-02T10:26:09.969Z,38.40
2019-02-02T10:27:09.973Z,38.60
2019-02-02T10:28:10.854Z,39.40
2019-02-02T10:29:10.414Z,40.40
2019-02-02T10:30:30.938Z,38.70
2019-02-02T10:31:09.919Z,39.30
2019-02-02T10:32:09.908Z,41.30
2019-02-02T10:33:09.902Z,38.80
2019-02-02T10:34:12.395Z,40.30
2019-02-02T10:35:09.893Z,41.30
2019-02-02T10:36:30.879Z,41.00
2019-02-02T10:37:09.861Z,42.30
2019-02-02T10:38:09.859Z,41.30
2019-02-02T10:39:09.850Z,40.10
2019-02-02T10:40:09.843Z,40.90
2019-02-02T10:41:09.826Z,39.50
2019-02-02T10:42:30.830Z,39.30
2019-02-02T10:43:09.809Z,37.00
2019-02-02T10:44:09.809Z,40.90
2019-02-02T10:45:09.794Z,38.60
2019-02-02T10:46:10.827Z,39.40
2019-02-02T10:47:09.771Z,41.60
2019-02-02T10:48:30.771Z,40.60
2019-02-02T10:49:09.754Z,39.40
2019-02-02T10:50:09.749Z,40.40
2019-02-02T10:51:09.747Z,39.70
2019-02-02T10:52:09.733Z,40.50
2019-02-02T10:53:09.717Z,42.00
2019-02-02T10:54:30.728Z,40.70
2019-02-02T10:55:10.735Z,41.10
2019-02-02T10:56:09.731Z,39.20
2019-02-02T10:57:09.696Z,39.90
2019-02-02T10:58:09.681Z,39.80
2019-02-02T10:59:09.665Z,40.60
2019-02-02T11:00:30.662Z,39.20
2019-02-02T11:01:09.659Z,40.90
2019-02-02T11:02:09.639Z,39.20
2019-02-02T11:03:09.637Z,38.80
2019-02-02T11:04:09.675Z,39.10
2019-02-02T11:05:09.680Z,44.50
2019-02-02T11:06:30.777Z,42.90
2019-02-02T11:07:09.651Z,39.80
2019-02-02T11:08:09.607Z,40.40
2019-02-02T11:09:09.641Z,41.80
2019-02-02T11:10:09.630Z,42.20
2019-02-02T11:11:09.745Z,40.80
2019-02-02T11:12:30.562Z,40.50
2019-02-02T11:13:09.561Z,40.80
2019-02-02T11:14:09.549Z,42.70
2019-02-02T11:15:09.706Z,43.10
2019-02-02T11:16:09.815Z,40.90
2019-02-02T11:17:09.654Z,39.70
2019-02-02T11:18:30.561Z,37.70
2019-02-02T11:19:09.793Z,39.10
2019-02-02T11:20:09.475Z,38.60
2019-02-02T11:21:09.477Z,36.80
2019-02-02T11:22:09.846Z,36.40
2019-02-02T11:23:09.583Z,38.10
2019-02-02T11:24:30.650Z,37.70
2019-02-02T11:25:11.403Z,38.10
2019-02-02T11:26:09.513Z,37.90
2019-02-02T11:27:12.250Z,38.30
2019-02-02T11:28:09.582Z,37.40
2019-02-02T11:29:09.464Z,39.40
2019-02-02T11:30:30.548Z,38.10
2019-02-02T11:31:09.390Z,38.20
2019-02-02T11:32:09.399Z,38.90
2019-02-02T11:33:09.360Z,38.50
2019-02-02T11:34:09.430Z,38.20
2019-02-02T11:35:09.360Z,38.00
2019-02-02T11:36:30.347Z,40.40
2019-02-02T11:37:09.338Z,39.50
2019-02-02T11:38:09.332Z,40.10
2019-02-02T11:39:09.330Z,38.90
2019-02-02T11:40:09.314Z,36.70
2019-02-02T11:41:09.327Z,39.00
2019-02-02T11:42:30.302Z,38.90
2019-02-02T11:43:09.281Z,39.10
2019-02-02T11:44:10.186Z,38.90
2019-02-02T11:45:09.262Z,39.20
2019-02-02T11:46:09.252Z,36.70
2019-02-02T11:47:09.282Z,40.10
2019-02-02T11:48:30.244Z,40.50
2019-02-02T11:49:10.006Z,37.50
2019-02-02T11:50:09.225Z,40.20
2019-02-02T11:51:09.259Z,41.90
2019-02-02T11:52:09.212Z,40.50
2019-02-02T11:53:09.376Z,39.50
2019-02-02T11:54:30.430Z,36.90
2019-02-02T11:55:09.172Z,38.30
2019-02-02T11:56:09.278Z,39.80
2019-02-02T11:57:09.170Z,37.70
2019-02-02T11:58:09.162Z,38.40
2019-02-02T11:59:09.219Z,36.50
2019-02-02T12:00:30.141Z,38.80
2019-02-02T12:01:09.144Z,38.80
2019-02-02T12:02:14.425Z,40.90
2019-02-02T12:03:09.118Z,40.50
2019-02-02T12:04:09.133Z,38.70
2019-02-02T12:05:09.101Z,40.40
2019-02-02T12:06:30.093Z,40.80
2019-02-02T12:07:09.127Z,38.20
2019-02-02T12:08:09.347Z,39.00
2019-02-02T12:09:09.092Z,37.00
2019-02-02T12:10:09.050Z,40.00
2019-02-02T12:11:09.041Z,39.50
2019-02-02T12:12:30.065Z,41.80
2019-02-02T12:13:09.031Z,40.30
2019-02-02T12:14:09.013Z,37.70
2019-02-02T12:15:09.003Z,37.90
2019-02-02T12:16:09.608Z,37.60
2019-02-02T12:17:09.838Z,37.30
2019-02-02T12:18:30.008Z,39.40
2019-02-02T12:19:08.967Z,38.80
2019-02-02T12:20:08.961Z,38.70
2019-02-02T12:21:08.967Z,40.90
2019-02-02T12:22:09.034Z,38.20
2019-02-02T12:23:08.943Z,40.60
2019-02-02T12:24:29.949Z,37.60
2019-02-02T12:25:08.978Z,37.20
2019-02-02T12:26:08.910Z,38.20
2019-02-02T12:27:08.899Z,38.70
2019-02-02T12:28:09.234Z,38.80
2019-02-02T12:29:08.894Z,39.90
2019-02-02T12:30:30.553Z,39.30
2019-02-02T12:31:08.932Z,38.90
2019-02-02T12:32:08.911Z,38.90
2019-02-02T12:33:08.867Z,37.90
2019-02-02T12:34:08.852Z,37.70
2019-02-02T12:35:08.862Z,36.70
2019-02-02T12:36:29.827Z,38.80
2019-02-02T12:37:08.804Z,40.40
2019-02-02T12:38:08.830Z,40.70
2019-02-02T12:39:08.793Z,42.60
2019-02-02T12:40:08.781Z,40.70
2019-02-02T12:41:08.768Z,40.10
2019-02-02T12:42:29.781Z,41.30
2019-02-02T12:43:11.515Z,40.70
2019-02-02T12:44:08.756Z,39.90
2019-02-02T12:45:08.748Z,41.30
2019-02-02T12:46:08.778Z,42.10
2019-02-02T12:47:08.721Z,42.40
2019-02-02T12:48:32.170Z,41.40
2019-02-02T12:49:08.711Z,43.70
2019-02-02T12:50:09.058Z,40.30
2019-02-02T12:51:08.757Z,40.00
2019-02-02T12:52:09.158Z,40.10